sensor_id;sensor_type;location;lat;lon;timestamp;P1;durP1;ratioP1;P2;durP2;ratioP2
37231;SDS011;23125;48.156;15.954;2022-12-16T00:00:21;23.07;;;11.70;;
37231;SDS011;23125;48.156;15.954;2022-12-16T00:02:48;22.92;;;11.30;;
37231;SDS011;23125;48.156;15.954;2022-12-16T00:05:14;25.02;;;11.25;;
37231;SDS011;23125;48.156;15.954;2022-12-16T00:07:41;21.42;;;11.05;;
37231;SDS011;23125;48.156;15.954;2022-12-16T00:10:07;24.05;;;10.82;;
37231;SDS011;23125;48.156;15.954;2022-12-16T00:12:33;20.77;;;10.45;;
37231;SDS011;23125;48.156;15.954;2022-12-16T00:14:59;22.05;;;10.65;;
37231;SDS011;23125;48.156;15.954;2022-12-16T00:17:25;23.50;;;11.73;;
37231;SDS011;23125;48.156;15.954;2022-12-16T00:19:51;28.52;;;13.32;;
37231;SDS011;23125;48.156;15.954;2022-12-16T00:22:17;27.63;;;12.63;;
37231;SDS011;23125;48.156;15.954;2022-12-16T00:24:42;22.77;;;10.35;;
37231;SDS011;23125;48.156;15.954;2022-12-16T00:27:09;27.70;;;13.13;;
37231;SDS011;23125;48.156;15.954;2022-12-16T00:29:35;30.15;;;13.18;;
37231;SDS011;23125;48.156;15.954;2022-12-16T00:32:01;30.17;;;14.27;;
37231;SDS011;23125;48.156;15.954;2022-12-16T00:34:27;32.17;;;15.00;;
37231;SDS011;23125;48.156;15.954;2022-12-16T00:36:53;31.92;;;14.10;;
37231;SDS011;23125;48.156;15.954;2022-12-16T00:39:18;26.48;;;12.60;;
37231;SDS011;23125;48.156;15.954;2022-12-16T00:41:44;32.38;;;15.50;;
37231;SDS011;23125;48.156;15.954;2022-12-16T00:44:11;31.88;;;15.40;;
37231;SDS011;23125;48.156;15.954;2022-12-16T00:46:37;33.13;;;15.45;;
37231;SDS011;23125;48.156;15.954;2022-12-16T00:49:04;33.63;;;15.63;;
37231;SDS011;23125;48.156;15.954;2022-12-16T00:51:30;37.25;;;16.77;;
37231;SDS011;23125;48.156;15.954;2022-12-16T00:53:56;37.47;;;17.15;;
37231;SDS011;23125;48.156;15.954;2022-12-16T00:56:24;39.40;;;15.98;;
37231;SDS011;23125;48.156;15.954;2022-12-16T00:58:50;36.00;;;17.02;;
37231;SDS011;23125;48.156;15.954;2022-12-16T01:01:16;37.80;;;15.63;;
37231;SDS011;23125;48.156;15.954;2022-12-16T01:03:43;22.17;;;9.15;;
37231;SDS011;23125;48.156;15.954;2022-12-16T01:06:09;41.80;;;17.65;;
37231;SDS011;23125;48.156;15.954;2022-12-16T01:08:37;43.08;;;17.85;;
37231;SDS011;23125;48.156;15.954;2022-12-16T01:11:03;44.95;;;18.65;;
37231;SDS011;23125;48.156;15.954;2022-12-16T01:13:30;40.38;;;16.75;;
37231;SDS011;23125;48.156;15.954;2022-12-16T01:16:00;40.50;;;18.70;;
37231;SDS011;23125;48.156;15.954;2022-12-16T01:18:26;38.70;;;18.40;;
37231;SDS011;23125;48.156;15.954;2022-12-16T01:20:52;39.67;;;17.70;;
37231;SDS011;23125;48.156;15.954;2022-12-16T01:23:18;40.38;;;20.23;;
37231;SDS011;23125;48.156;15.954;2022-12-16T01:25:44;43.22;;;19.77;;
37231;SDS011;23125;48.156;15.954;2022-12-16T01:28:09;43.63;;;19.40;;
37231;SDS011;23125;48.156;15.954;2022-12-16T01:30:35;38.33;;;16.15;;
37231;SDS011;23125;48.156;15.954;2022-12-16T01:33:01;40.88;;;17.27;;
37231;SDS011;23125;48.156;15.954;2022-12-16T01:35:27;45.50;;;18.73;;
37231;SDS011;23125;48.156;15.954;2022-12-16T01:37:53;46.17;;;19.63;;
37231;SDS011;23125;48.156;15.954;2022-12-16T01:40:20;39.70;;;17.50;;
37231;SDS011;23125;48.156;15.954;2022-12-16T01:42:48;46.08;;;20.98;;
37231;SDS011;23125;48.156;15.954;2022-12-16T01:47:49;46.45;;;20.50;;
37231;SDS011;23125;48.156;15.954;2022-12-16T01:50:18;47.30;;;20.60;;
37231;SDS011;23125;48.156;15.954;2022-12-16T01:52:45;47.75;;;20.73;;
37231;SDS011;23125;48.156;15.954;2022-12-16T01:55:17;48.03;;;22.33;;
37231;SDS011;23125;48.156;15.954;2022-12-16T01:57:48;44.50;;;19.55;;
37231;SDS011;23125;48.156;15.954;2022-12-16T02:00:19;47.33;;;19.67;;
37231;SDS011;23125;48.156;15.954;2022-12-16T02:02:45;41.70;;;18.42;;
37231;SDS011;23125;48.156;15.954;2022-12-16T02:05:15;49.05;;;20.38;;
37231;SDS011;23125;48.156;15.954;2022-12-16T02:13:13;44.88;;;20.90;;
37231;SDS011;23125;48.156;15.954;2022-12-16T02:18:50;41.90;;;19.38;;
37231;SDS011;23125;48.156;15.954;2022-12-16T02:21:27;40.38;;;19.83;;
37231;SDS011;23125;48.156;15.954;2022-12-16T02:24:12;38.97;;;18.77;;
37231;SDS011;23125;48.156;15.954;2022-12-16T02:27:21;37.60;;;17.80;;
37231;SDS011;23125;48.156;15.954;2022-12-16T02:40:37;23.63;;;11.13;;
37231;SDS011;23125;48.156;15.954;2022-12-16T02:43:14;12.48;;;7.28;;
37231;SDS011;23125;48.156;15.954;2022-12-16T02:46:00;27.48;;;11.90;;
37231;SDS011;23125;48.156;15.954;2022-12-16T02:48:28;22.63;;;10.52;;
37231;SDS011;23125;48.156;15.954;2022-12-16T02:50:54;15.90;;;7.57;;
37231;SDS011;23125;48.156;15.954;2022-12-16T02:53:20;12.85;;;6.35;;
37231;SDS011;23125;48.156;15.954;2022-12-16T03:04:15;20.50;;;9.65;;
37231;SDS011;23125;48.156;15.954;2022-12-16T03:06:47;10.55;;;4.07;;
37231;SDS011;23125;48.156;15.954;2022-12-16T03:09:17;10.60;;;6.20;;
37231;SDS011;23125;48.156;15.954;2022-12-16T03:11:46;20.02;;;11.32;;
37231;SDS011;23125;48.156;15.954;2022-12-16T03:14:15;20.95;;;11.68;;
37231;SDS011;23125;48.156;15.954;2022-12-16T03:16:43;12.65;;;5.50;;
37231;SDS011;23125;48.156;15.954;2022-12-16T03:19:11;19.88;;;10.45;;
37231;SDS011;23125;48.156;15.954;2022-12-16T03:21:42;19.10;;;9.07;;
37231;SDS011;23125;48.156;15.954;2022-12-16T03:24:13;17.20;;;10.48;;
37231;SDS011;23125;48.156;15.954;2022-12-16T03:26:42;12.70;;;6.40;;
37231;SDS011;23125;48.156;15.954;2022-12-16T03:32:12;13.52;;;8.20;;
37231;SDS011;23125;48.156;15.954;2022-12-16T03:34:52;13.73;;;8.80;;
37231;SDS011;23125;48.156;15.954;2022-12-16T03:37:26;15.95;;;9.30;;
37231;SDS011;23125;48.156;15.954;2022-12-16T03:39:57;15.75;;;9.27;;
37231;SDS011;23125;48.156;15.954;2022-12-16T03:42:25;13.52;;;8.75;;
37231;SDS011;23125;48.156;15.954;2022-12-16T03:44:51;9.23;;;5.72;;
37231;SDS011;23125;48.156;15.954;2022-12-16T03:47:18;12.25;;;7.45;;
37231;SDS011;23125;48.156;15.954;2022-12-16T03:49:44;13.30;;;8.32;;
37231;SDS011;23125;48.156;15.954;2022-12-16T03:52:10;11.30;;;6.78;;
37231;SDS011;23125;48.156;15.954;2022-12-16T03:54:35;7.10;;;5.30;;
37231;SDS011;23125;48.156;15.954;2022-12-16T03:57:01;9.90;;;6.18;;
37231;SDS011;23125;48.156;15.954;2022-12-16T03:59:27;8.00;;;5.47;;
37231;SDS011;23125;48.156;15.954;2022-12-16T04:01:53;9.15;;;6.22;;
37231;SDS011;23125;48.156;15.954;2022-12-16T04:04:19;10.20;;;6.40;;
37231;SDS011;23125;48.156;15.954;2022-12-16T04:06:45;9.95;;;7.15;;
37231;SDS011;23125;48.156;15.954;2022-12-16T04:09:31;11.15;;;6.60;;
37231;SDS011;23125;48.156;15.954;2022-12-16T04:11:56;8.68;;;6.20;;
37231;SDS011;23125;48.156;15.954;2022-12-16T04:14:41;8.68;;;6.88;;
37231;SDS011;23125;48.156;15.954;2022-12-16T04:17:25;10.57;;;6.78;;
37231;SDS011;23125;48.156;15.954;2022-12-16T04:20:12;8.77;;;6.05;;
37231;SDS011;23125;48.156;15.954;2022-12-16T04:22:59;9.20;;;6.30;;
37231;SDS011;23125;48.156;15.954;2022-12-16T04:25:44;9.88;;;6.10;;
37231;SDS011;23125;48.156;15.954;2022-12-16T04:28:10;8.80;;;6.15;;
37231;SDS011;23125;48.156;15.954;2022-12-16T04:30:36;8.15;;;5.85;;
37231;SDS011;23125;48.156;15.954;2022-12-16T04:33:06;8.57;;;6.03;;
37231;SDS011;23125;48.156;15.954;2022-12-16T04:35:53;8.50;;;5.75;;
37231;SDS011;23125;48.156;15.954;2022-12-16T04:38:38;8.13;;;5.85;;
37231;SDS011;23125;48.156;15.954;2022-12-16T04:41:23;9.65;;;5.60;;
37231;SDS011;23125;48.156;15.954;2022-12-16T04:44:07;7.28;;;5.88;;
37231;SDS011;23125;48.156;15.954;2022-12-16T04:47:12;7.80;;;5.72;;
37231;SDS011;23125;48.156;15.954;2022-12-16T04:50:13;8.93;;;6.07;;
37231;SDS011;23125;48.156;15.954;2022-12-16T04:52:57;9.80;;;6.18;;
37231;SDS011;23125;48.156;15.954;2022-12-16T04:55:41;8.02;;;6.03;;
37231;SDS011;23125;48.156;15.954;2022-12-16T04:58:26;8.88;;;6.57;;
37231;SDS011;23125;48.156;15.954;2022-12-16T05:01:10;8.18;;;5.88;;
37231;SDS011;23125;48.156;15.954;2022-12-16T05:03:55;7.53;;;5.50;;
37231;SDS011;23125;48.156;15.954;2022-12-16T05:06:39;7.40;;;5.88;;
37231;SDS011;23125;48.156;15.954;2022-12-16T05:09:24;9.10;;;6.20;;
37231;SDS011;23125;48.156;15.954;2022-12-16T05:12:08;9.27;;;6.05;;
37231;SDS011;23125;48.156;15.954;2022-12-16T05:14:52;7.85;;;5.47;;
37231;SDS011;23125;48.156;15.954;2022-12-16T05:17:37;7.68;;;5.50;;
37231;SDS011;23125;48.156;15.954;2022-12-16T05:20:21;8.90;;;5.78;;
37231;SDS011;23125;48.156;15.954;2022-12-16T05:23:06;9.32;;;6.65;;
37231;SDS011;23125;48.156;15.954;2022-12-16T05:25:50;7.53;;;5.65;;
37231;SDS011;23125;48.156;15.954;2022-12-16T05:28:34;8.90;;;6.30;;
37231;SDS011;23125;48.156;15.954;2022-12-16T05:31:19;8.23;;;6.20;;
37231;SDS011;23125;48.156;15.954;2022-12-16T05:34:03;8.15;;;6.10;;
37231;SDS011;23125;48.156;15.954;2022-12-16T05:36:47;11.65;;;6.95;;
37231;SDS011;23125;48.156;15.954;2022-12-16T05:39:32;17.38;;;10.70;;
37231;SDS011;23125;48.156;15.954;2022-12-16T05:42:16;16.02;;;11.07;;
37231;SDS011;23125;48.156;15.954;2022-12-16T05:45:00;15.50;;;11.10;;
37231;SDS011;23125;48.156;15.954;2022-12-16T05:47:46;19.42;;;12.55;;
37231;SDS011;23125;48.156;15.954;2022-12-16T05:50:32;13.63;;;8.65;;
37231;SDS011;23125;48.156;15.954;2022-12-16T05:53:16;14.90;;;9.77;;
37231;SDS011;23125;48.156;15.954;2022-12-16T05:56:01;17.75;;;9.93;;
37231;SDS011;23125;48.156;15.954;2022-12-16T05:58:45;19.17;;;11.50;;
37231;SDS011;23125;48.156;15.954;2022-12-16T06:01:40;22.30;;;11.98;;
37231;SDS011;23125;48.156;15.954;2022-12-16T06:04:24;24.98;;;14.57;;
37231;SDS011;23125;48.156;15.954;2022-12-16T06:07:08;27.90;;;15.02;;
37231;SDS011;23125;48.156;15.954;2022-12-16T06:09:53;34.83;;;16.63;;
37231;SDS011;23125;48.156;15.954;2022-12-16T06:12:37;29.83;;;15.90;;
37231;SDS011;23125;48.156;15.954;2022-12-16T06:15:21;25.60;;;13.93;;
37231;SDS011;23125;48.156;15.954;2022-12-16T06:18:05;33.38;;;17.17;;
37231;SDS011;23125;48.156;15.954;2022-12-16T06:20:50;31.67;;;16.42;;
37231;SDS011;23125;48.156;15.954;2022-12-16T06:23:34;22.10;;;13.30;;
37231;SDS011;23125;48.156;15.954;2022-12-16T06:26:19;16.75;;;11.68;;
37231;SDS011;23125;48.156;15.954;2022-12-16T06:29:03;20.60;;;14.02;;
37231;SDS011;23125;48.156;15.954;2022-12-16T06:31:48;21.02;;;13.40;;
37231;SDS011;23125;48.156;15.954;2022-12-16T06:34:32;18.63;;;12.18;;
37231;SDS011;23125;48.156;15.954;2022-12-16T06:37:17;18.25;;;11.85;;
37231;SDS011;23125;48.156;15.954;2022-12-16T06:40:01;18.15;;;11.80;;
37231;SDS011;23125;48.156;15.954;2022-12-16T06:42:46;18.13;;;12.23;;
37231;SDS011;23125;48.156;15.954;2022-12-16T06:45:30;17.10;;;10.98;;
37231;SDS011;23125;48.156;15.954;2022-12-16T06:48:15;15.75;;;10.02;;
37231;SDS011;23125;48.156;15.954;2022-12-16T06:50:59;17.13;;;10.00;;
37231;SDS011;23125;48.156;15.954;2022-12-16T06:53:43;17.17;;;11.43;;
37231;SDS011;23125;48.156;15.954;2022-12-16T06:56:27;15.82;;;9.60;;
37231;SDS011;23125;48.156;15.954;2022-12-16T06:59:11;15.13;;;9.10;;
37231;SDS011;23125;48.156;15.954;2022-12-16T07:01:56;15.27;;;9.45;;
37231;SDS011;23125;48.156;15.954;2022-12-16T07:04:40;19.75;;;10.88;;
37231;SDS011;23125;48.156;15.954;2022-12-16T07:07:25;14.07;;;8.95;;
37231;SDS011;23125;48.156;15.954;2022-12-16T07:10:09;18.67;;;10.10;;
37231;SDS011;23125;48.156;15.954;2022-12-16T07:12:58;21.17;;;10.65;;
37231;SDS011;23125;48.156;15.954;2022-12-16T07:15:42;15.00;;;10.23;;
37231;SDS011;23125;48.156;15.954;2022-12-16T07:18:27;14.93;;;9.07;;
37231;SDS011;23125;48.156;15.954;2022-12-16T07:21:12;13.95;;;9.20;;
37231;SDS011;23125;48.156;15.954;2022-12-16T07:23:56;14.30;;;8.30;;
37231;SDS011;23125;48.156;15.954;2022-12-16T07:26:40;12.93;;;8.60;;
37231;SDS011;23125;48.156;15.954;2022-12-16T07:29:38;14.93;;;9.32;;
37231;SDS011;23125;48.156;15.954;2022-12-16T07:32:23;13.35;;;8.18;;
37231;SDS011;23125;48.156;15.954;2022-12-16T07:35:07;14.57;;;8.35;;
37231;SDS011;23125;48.156;15.954;2022-12-16T07:37:51;13.90;;;7.75;;
37231;SDS011;23125;48.156;15.954;2022-12-16T07:40:36;11.55;;;7.55;;
37231;SDS011;23125;48.156;15.954;2022-12-16T07:43:20;13.43;;;8.02;;
37231;SDS011;23125;48.156;15.954;2022-12-16T07:46:04;13.52;;;8.27;;
37231;SDS011;23125;48.156;15.954;2022-12-16T07:48:49;11.60;;;7.70;;
37231;SDS011;23125;48.156;15.954;2022-12-16T07:51:33;13.55;;;7.60;;
37231;SDS011;23125;48.156;15.954;2022-12-16T07:54:17;12.23;;;6.93;;
37231;SDS011;23125;48.156;15.954;2022-12-16T07:57:02;11.43;;;7.60;;
37231;SDS011;23125;48.156;15.954;2022-12-16T07:59:46;9.43;;;6.57;;
37231;SDS011;23125;48.156;15.954;2022-12-16T08:02:30;9.27;;;6.38;;
37231;SDS011;23125;48.156;15.954;2022-12-16T08:05:15;9.45;;;6.05;;
37231;SDS011;23125;48.156;15.954;2022-12-16T08:07:59;41.30;;;7.90;;
37231;SDS011;23125;48.156;15.954;2022-12-16T08:10:44;8.68;;;6.05;;
37231;SDS011;23125;48.156;15.954;2022-12-16T08:13:28;25.17;;;6.97;;
37231;SDS011;23125;48.156;15.954;2022-12-16T08:16:13;6.80;;;4.90;;
37231;SDS011;23125;48.156;15.954;2022-12-16T08:18:57;10.68;;;5.88;;
37231;SDS011;23125;48.156;15.954;2022-12-16T08:21:41;8.68;;;5.63;;
37231;SDS011;23125;48.156;15.954;2022-12-16T08:24:25;9.60;;;6.13;;
37231;SDS011;23125;48.156;15.954;2022-12-16T08:27:10;8.65;;;6.00;;
37231;SDS011;23125;48.156;15.954;2022-12-16T08:29:54;13.45;;;6.60;;
37231;SDS011;23125;48.156;15.954;2022-12-16T08:32:39;9.95;;;6.18;;
37231;SDS011;23125;48.156;15.954;2022-12-16T08:35:23;12.68;;;7.00;;
37231;SDS011;23125;48.156;15.954;2022-12-16T08:38:07;11.27;;;6.93;;
37231;SDS011;23125;48.156;15.954;2022-12-16T08:40:53;14.75;;;8.80;;
37231;SDS011;23125;48.156;15.954;2022-12-16T08:43:38;17.30;;;10.23;;
37231;SDS011;23125;48.156;15.954;2022-12-16T08:46:22;17.75;;;10.07;;
37231;SDS011;23125;48.156;15.954;2022-12-16T08:49:07;19.40;;;11.30;;
37231;SDS011;23125;48.156;15.954;2022-12-16T08:51:51;21.23;;;11.30;;
37231;SDS011;23125;48.156;15.954;2022-12-16T08:54:36;24.95;;;12.77;;
37231;SDS011;23125;48.156;15.954;2022-12-16T08:57:21;26.38;;;12.02;;
37231;SDS011;23125;48.156;15.954;2022-12-16T09:00:05;26.95;;;12.95;;
37231;SDS011;23125;48.156;15.954;2022-12-16T09:02:54;22.95;;;11.75;;
37231;SDS011;23125;48.156;15.954;2022-12-16T09:05:42;25.60;;;12.73;;
37231;SDS011;23125;48.156;15.954;2022-12-16T09:08:27;29.05;;;14.20;;
37231;SDS011;23125;48.156;15.954;2022-12-16T09:11:12;29.63;;;14.27;;
37231;SDS011;23125;48.156;15.954;2022-12-16T09:13:56;30.42;;;13.98;;
37231;SDS011;23125;48.156;15.954;2022-12-16T09:16:41;29.20;;;13.65;;
37231;SDS011;23125;48.156;15.954;2022-12-16T09:19:25;29.58;;;13.43;;
37231;SDS011;23125;48.156;15.954;2022-12-16T09:22:10;30.13;;;13.27;;
37231;SDS011;23125;48.156;15.954;2022-12-16T09:24:54;29.17;;;13.93;;
37231;SDS011;23125;48.156;15.954;2022-12-16T09:27:38;29.95;;;13.43;;
37231;SDS011;23125;48.156;15.954;2022-12-16T09:30:23;27.52;;;12.93;;
37231;SDS011;23125;48.156;15.954;2022-12-16T09:33:07;28.77;;;13.43;;
37231;SDS011;23125;48.156;15.954;2022-12-16T09:35:52;23.90;;;12.52;;
37231;SDS011;23125;48.156;15.954;2022-12-16T09:38:36;27.85;;;12.35;;
37231;SDS011;23125;48.156;15.954;2022-12-16T09:50:15;23.10;;;11.57;;
37231;SDS011;23125;48.156;15.954;2022-12-16T09:53:27;25.80;;;13.35;;
37231;SDS011;23125;48.156;15.954;2022-12-16T09:56:17;25.90;;;12.32;;
37231;SDS011;23125;48.156;15.954;2022-12-16T09:59:12;27.55;;;13.20;;
37231;SDS011;23125;48.156;15.954;2022-12-16T10:01:59;27.15;;;13.85;;
37231;SDS011;23125;48.156;15.954;2022-12-16T10:04:45;23.90;;;12.63;;
37231;SDS011;23125;48.156;15.954;2022-12-16T10:07:34;27.27;;;12.52;;
37231;SDS011;23125;48.156;15.954;2022-12-16T10:10:47;26.15;;;13.35;;
37231;SDS011;23125;48.156;15.954;2022-12-16T10:13:44;23.70;;;12.73;;
37231;SDS011;23125;48.156;15.954;2022-12-16T10:20:04;25.70;;;13.23;;
37231;SDS011;23125;48.156;15.954;2022-12-16T10:25:22;21.35;;;11.85;;
37231;SDS011;23125;48.156;15.954;2022-12-16T10:31:01;26.27;;;12.77;;
37231;SDS011;23125;48.156;15.954;2022-12-16T10:33:53;23.13;;;12.55;;
37231;SDS011;23125;48.156;15.954;2022-12-16T10:36:38;21.67;;;11.80;;
37231;SDS011;23125;48.156;15.954;2022-12-16T10:39:28;23.30;;;12.20;;
37231;SDS011;23125;48.156;15.954;2022-12-16T10:42:21;22.13;;;12.07;;
37231;SDS011;23125;48.156;15.954;2022-12-16T10:48:02;23.40;;;11.68;;
37231;SDS011;23125;48.156;15.954;2022-12-16T10:50:47;21.35;;;11.40;;
37231;SDS011;23125;48.156;15.954;2022-12-16T10:53:31;22.45;;;12.07;;
37231;SDS011;23125;48.156;15.954;2022-12-16T10:59:22;21.30;;;12.10;;
37231;SDS011;23125;48.156;15.954;2022-12-16T11:02:20;25.83;;;14.00;;
37231;SDS011;23125;48.156;15.954;2022-12-16T11:05:49;24.77;;;13.02;;
37231;SDS011;23125;48.156;15.954;2022-12-16T11:08:29;26.42;;;13.32;;
37231;SDS011;23125;48.156;15.954;2022-12-16T11:11:28;21.85;;;12.07;;
37231;SDS011;23125;48.156;15.954;2022-12-16T11:23:12;20.70;;;12.35;;
37231;SDS011;23125;48.156;15.954;2022-12-16T11:26:07;21.98;;;12.20;;
37231;SDS011;23125;48.156;15.954;2022-12-16T11:29:11;21.27;;;12.82;;
37231;SDS011;23125;48.156;15.954;2022-12-16T11:34:55;16.98;;;10.70;;
37231;SDS011;23125;48.156;15.954;2022-12-16T11:37:43;19.30;;;11.40;;
37231;SDS011;23125;48.156;15.954;2022-12-16T11:40:29;19.58;;;11.73;;
37231;SDS011;23125;48.156;15.954;2022-12-16T11:43:15;19.23;;;11.70;;
37231;SDS011;23125;48.156;15.954;2022-12-16T11:46:04;21.42;;;11.88;;
37231;SDS011;23125;48.156;15.954;2022-12-16T11:51:45;25.65;;;14.15;;
37231;SDS011;23125;48.156;15.954;2022-12-16T11:54:36;22.40;;;12.23;;
37231;SDS011;23125;48.156;15.954;2022-12-16T11:57:31;19.25;;;11.68;;
37231;SDS011;23125;48.156;15.954;2022-12-16T12:00:26;23.10;;;12.32;;
37231;SDS011;23125;48.156;15.954;2022-12-16T12:03:14;20.98;;;12.23;;
37231;SDS011;23125;48.156;15.954;2022-12-16T12:06:07;20.65;;;12.32;;
37231;SDS011;23125;48.156;15.954;2022-12-16T12:15:48;22.17;;;11.57;;
37231;SDS011;23125;48.156;15.954;2022-12-16T12:18:40;23.80;;;13.60;;
37231;SDS011;23125;48.156;15.954;2022-12-16T12:31:38;25.60;;;14.27;;
37231;SDS011;23125;48.156;15.954;2022-12-16T12:47:23;27.77;;;14.43;;
37231;SDS011;23125;48.156;15.954;2022-12-16T12:50:13;34.95;;;17.58;;
37231;SDS011;23125;48.156;15.954;2022-12-16T12:53:09;27.40;;;14.77;;
37231;SDS011;23125;48.156;15.954;2022-12-16T12:56:18;24.15;;;13.75;;
37231;SDS011;23125;48.156;15.954;2022-12-16T12:59:26;21.67;;;12.57;;
37231;SDS011;23125;48.156;15.954;2022-12-16T13:02:21;23.00;;;13.25;;
37231;SDS011;23125;48.156;15.954;2022-12-16T13:05:10;23.30;;;12.60;;
37231;SDS011;23125;48.156;15.954;2022-12-16T13:11:13;22.08;;;13.27;;
37231;SDS011;23125;48.156;15.954;2022-12-16T13:13:57;28.30;;;14.88;;
37231;SDS011;23125;48.156;15.954;2022-12-16T13:28:36;20.35;;;12.18;;
37231;SDS011;23125;48.156;15.954;2022-12-16T13:31:22;19.55;;;12.93;;
37231;SDS011;23125;48.156;15.954;2022-12-16T13:37:05;24.33;;;14.52;;
37231;SDS011;23125;48.156;15.954;2022-12-16T13:40:21;19.02;;;12.00;;
37231;SDS011;23125;48.156;15.954;2022-12-16T13:46:39;22.70;;;11.82;;
37231;SDS011;23125;48.156;15.954;2022-12-16T13:52:23;21.30;;;12.65;;
37231;SDS011;23125;48.156;15.954;2022-12-16T13:58:36;26.23;;;14.10;;
37231;SDS011;23125;48.156;15.954;2022-12-16T14:04:38;19.67;;;11.82;;
37231;SDS011;23125;48.156;15.954;2022-12-16T14:07:34;19.67;;;11.75;;
37231;SDS011;23125;48.156;15.954;2022-12-16T14:25:43;26.95;;;15.10;;
37231;SDS011;23125;48.156;15.954;2022-12-16T14:31:29;25.52;;;14.80;;
37231;SDS011;23125;48.156;15.954;2022-12-16T14:34:22;24.95;;;15.25;;
37231;SDS011;23125;48.156;15.954;2022-12-16T14:37:17;26.77;;;15.75;;
37231;SDS011;23125;48.156;15.954;2022-12-16T14:40:04;29.40;;;15.82;;
37231;SDS011;23125;48.156;15.954;2022-12-16T14:43:01;27.55;;;15.90;;
37231;SDS011;23125;48.156;15.954;2022-12-16T14:45:48;28.55;;;15.00;;
37231;SDS011;23125;48.156;15.954;2022-12-16T14:48:34;28.85;;;16.02;;
37231;SDS011;23125;48.156;15.954;2022-12-16T14:51:28;36.15;;;19.55;;
37231;SDS011;23125;48.156;15.954;2022-12-16T14:57:16;34.60;;;18.48;;
37231;SDS011;23125;48.156;15.954;2022-12-16T15:02:54;29.95;;;16.85;;
37231;SDS011;23125;48.156;15.954;2022-12-16T15:05:48;26.02;;;15.80;;
37231;SDS011;23125;48.156;15.954;2022-12-16T15:08:35;29.45;;;16.77;;
37231;SDS011;23125;48.156;15.954;2022-12-16T15:11:29;27.77;;;15.60;;
37231;SDS011;23125;48.156;15.954;2022-12-16T15:14:14;30.05;;;16.00;;
37231;SDS011;23125;48.156;15.954;2022-12-16T15:17:14;25.27;;;14.27;;
37231;SDS011;23125;48.156;15.954;2022-12-16T15:20:13;25.20;;;16.33;;
37231;SDS011;23125;48.156;15.954;2022-12-16T15:23:02;28.85;;;16.48;;
37231;SDS011;23125;48.156;15.954;2022-12-16T15:25:49;26.58;;;14.55;;
37231;SDS011;23125;48.156;15.954;2022-12-16T15:28:38;31.13;;;17.02;;
37231;SDS011;23125;48.156;15.954;2022-12-16T15:31:25;26.80;;;14.82;;
37231;SDS011;23125;48.156;15.954;2022-12-16T15:37:03;28.23;;;14.85;;
37231;SDS011;23125;48.156;15.954;2022-12-16T15:39:56;24.30;;;14.15;;
37231;SDS011;23125;48.156;15.954;2022-12-16T15:42:40;23.35;;;13.35;;
37231;SDS011;23125;48.156;15.954;2022-12-16T15:45:26;22.08;;;14.35;;
37231;SDS011;23125;48.156;15.954;2022-12-16T15:48:23;21.60;;;12.88;;
37231;SDS011;23125;48.156;15.954;2022-12-16T15:54:19;22.20;;;13.20;;
37231;SDS011;23125;48.156;15.954;2022-12-16T15:57:22;21.55;;;13.80;;
37231;SDS011;23125;48.156;15.954;2022-12-16T16:00:17;24.58;;;13.18;;
37231;SDS011;23125;48.156;15.954;2022-12-16T16:03:18;22.40;;;14.23;;
37231;SDS011;23125;48.156;15.954;2022-12-16T16:06:13;24.13;;;14.10;;
37231;SDS011;23125;48.156;15.954;2022-12-16T16:09:15;23.17;;;14.40;;
37231;SDS011;23125;48.156;15.954;2022-12-16T16:12:02;25.52;;;14.50;;
37231;SDS011;23125;48.156;15.954;2022-12-16T16:14:47;24.35;;;13.95;;
37231;SDS011;23125;48.156;15.954;2022-12-16T16:17:31;23.45;;;12.45;;
37231;SDS011;23125;48.156;15.954;2022-12-16T16:20:18;24.95;;;13.93;;
37231;SDS011;23125;48.156;15.954;2022-12-16T16:23:02;24.55;;;14.20;;
37231;SDS011;23125;48.156;15.954;2022-12-16T16:25:47;26.23;;;13.35;;
37231;SDS011;23125;48.156;15.954;2022-12-16T16:28:32;26.45;;;14.02;;
37231;SDS011;23125;48.156;15.954;2022-12-16T16:31:17;25.85;;;14.68;;
37231;SDS011;23125;48.156;15.954;2022-12-16T16:34:02;26.17;;;14.82;;
37231;SDS011;23125;48.156;15.954;2022-12-16T16:36:47;25.52;;;14.00;;
37231;SDS011;23125;48.156;15.954;2022-12-16T16:42:20;28.23;;;15.23;;
37231;SDS011;23125;48.156;15.954;2022-12-16T16:45:05;26.67;;;15.75;;
37231;SDS011;23125;48.156;15.954;2022-12-16T16:47:49;22.20;;;13.80;;
37231;SDS011;23125;48.156;15.954;2022-12-16T16:50:35;26.80;;;15.50;;
37231;SDS011;23125;48.156;15.954;2022-12-16T16:53:20;24.70;;;15.07;;
37231;SDS011;23125;48.156;15.954;2022-12-16T16:56:04;25.83;;;15.45;;
37231;SDS011;23125;48.156;15.954;2022-12-16T16:58:49;25.52;;;14.10;;
37231;SDS011;23125;48.156;15.954;2022-12-16T17:01:44;24.15;;;14.07;;
37231;SDS011;23125;48.156;15.954;2022-12-16T17:04:28;23.60;;;15.25;;
37231;SDS011;23125;48.156;15.954;2022-12-16T17:07:12;26.02;;;15.95;;
37231;SDS011;23125;48.156;15.954;2022-12-16T17:10:02;28.50;;;17.25;;
37231;SDS011;23125;48.156;15.954;2022-12-16T17:12:46;28.05;;;15.77;;
37231;SDS011;23125;48.156;15.954;2022-12-16T17:15:33;24.48;;;14.75;;
37231;SDS011;23125;48.156;15.954;2022-12-16T17:18:19;28.33;;;15.95;;
37231;SDS011;23125;48.156;15.954;2022-12-16T17:21:03;26.67;;;16.35;;
37231;SDS011;23125;48.156;15.954;2022-12-16T17:23:48;28.38;;;16.38;;
37231;SDS011;23125;48.156;15.954;2022-12-16T17:26:32;25.52;;;14.90;;
37231;SDS011;23125;48.156;15.954;2022-12-16T17:29:18;25.48;;;15.00;;
37231;SDS011;23125;48.156;15.954;2022-12-16T17:32:05;24.20;;;15.15;;
37231;SDS011;23125;48.156;15.954;2022-12-16T17:34:51;22.70;;;13.98;;
37231;SDS011;23125;48.156;15.954;2022-12-16T17:37:35;24.48;;;14.32;;
37231;SDS011;23125;48.156;15.954;2022-12-16T17:40:20;25.45;;;14.88;;
37231;SDS011;23125;48.156;15.954;2022-12-16T17:43:05;40.85;;;22.80;;
37231;SDS011;23125;48.156;15.954;2022-12-16T17:45:59;29.95;;;17.25;;
37231;SDS011;23125;48.156;15.954;2022-12-16T17:48:44;32.35;;;17.05;;
37231;SDS011;23125;48.156;15.954;2022-12-16T17:51:33;34.95;;;19.45;;
37231;SDS011;23125;48.156;15.954;2022-12-16T17:54:17;30.52;;;17.77;;
37231;SDS011;23125;48.156;15.954;2022-12-16T17:57:01;31.85;;;19.40;;
37231;SDS011;23125;48.156;15.954;2022-12-16T17:59:45;32.38;;;19.83;;
37231;SDS011;23125;48.156;15.954;2022-12-16T18:02:30;35.95;;;21.25;;
37231;SDS011;23125;48.156;15.954;2022-12-16T18:05:14;27.33;;;15.80;;
37231;SDS011;23125;48.156;15.954;2022-12-16T18:07:58;38.58;;;20.52;;
37231;SDS011;23125;48.156;15.954;2022-12-16T18:10:43;31.77;;;17.23;;
37231;SDS011;23125;48.156;15.954;2022-12-16T18:13:27;36.25;;;19.77;;
37231;SDS011;23125;48.156;15.954;2022-12-16T18:16:11;30.17;;;18.50;;
37231;SDS011;23125;48.156;15.954;2022-12-16T18:18:56;38.22;;;23.58;;
37231;SDS011;23125;48.156;15.954;2022-12-16T18:21:40;30.67;;;17.60;;
37231;SDS011;23125;48.156;15.954;2022-12-16T18:24:25;21.35;;;13.95;;
37231;SDS011;23125;48.156;15.954;2022-12-16T18:27:09;23.15;;;14.50;;